createdAt,value
2018-05-03T00:01:23.407Z,5.83
2018-05-03T00:03:51.335Z,6.10
2018-05-03T00:06:19.244Z,5.70
2018-05-03T00:08:47.150Z,5.53
2018-05-03T00:11:15.106Z,6.00
2018-05-03T00:13:43.015Z,6.30
2018-05-03T00:16:10.942Z,5.70
2018-05-03T00:18:38.863Z,5.87
2018-05-03T00:21:06.801Z,5.50
2018-05-03T00:23:34.776Z,5.30
2018-05-03T00:26:02.695Z,5.80
2018-05-03T00:28:30.638Z,5.00
2018-05-03T00:30:58.533Z,5.70
2018-05-03T00:33:26.483Z,5.00
2018-05-03T00:35:54.427Z,5.70
2018-05-03T00:38:22.343Z,5.10
2018-05-03T00:40:50.263Z,5.50
2018-05-03T00:43:18.163Z,6.03
2018-05-03T00:45:46.117Z,6.20
2018-05-03T00:48:14.044Z,5.70
2018-05-03T00:50:42.011Z,7.10
2018-05-03T00:53:09.889Z,4.87
2018-05-03T00:55:37.821Z,5.40
2018-05-03T00:58:05.711Z,5.60
2018-05-03T01:00:33.640Z,5.80
2018-05-03T01:03:01.635Z,5.57
2018-05-03T01:05:29.543Z,5.50
2018-05-03T01:07:57.442Z,6.37
2018-05-03T01:10:25.360Z,6.00
2018-05-03T01:12:53.271Z,5.40
2018-05-03T01:15:21.243Z,6.17
2018-05-03T01:17:49.127Z,5.87
2018-05-03T01:20:17.648Z,6.30
2018-05-03T01:22:45.599Z,6.30
2018-05-03T01:25:13.519Z,5.60
2018-05-03T01:27:41.452Z,6.20
2018-05-03T01:30:09.370Z,5.90
2018-05-03T01:32:37.331Z,6.07
2018-05-03T01:38:02.663Z,5.87
2018-05-03T01:40:30.571Z,5.87
2018-05-03T01:42:58.554Z,6.90
2018-05-03T01:45:26.482Z,5.97
2018-05-03T01:47:54.402Z,6.53
2018-05-03T01:50:22.316Z,6.17
2018-05-03T01:52:50.259Z,6.40
2018-05-03T01:55:18.188Z,6.73
2018-05-03T01:57:46.123Z,6.17
2018-05-03T02:00:14.022Z,6.97
2018-05-03T02:05:16.293Z,7.30
2018-05-03T02:07:44.236Z,7.73
2018-05-03T02:10:12.158Z,6.70
2018-05-03T02:12:40.153Z,7.27
2018-05-03T02:15:08.088Z,6.90
2018-05-03T02:17:36.004Z,6.60
2018-05-03T02:20:03.903Z,6.90
2018-05-03T02:22:31.815Z,7.33
2018-05-03T02:24:59.883Z,7.70
2018-05-03T02:27:27.781Z,7.13
2018-05-03T02:29:55.725Z,7.57
2018-05-03T02:32:23.652Z,7.13
2018-05-03T02:34:51.547Z,7.87
2018-05-03T02:37:19.450Z,7.20
2018-05-03T02:39:47.405Z,7.17
2018-05-03T02:42:15.294Z,8.27
2018-05-03T02:44:43.235Z,7.83
2018-05-03T02:47:11.429Z,7.00
2018-05-03T02:49:39.356Z,7.60
2018-05-03T02:52:07.547Z,7.23
2018-05-03T02:54:35.460Z,7.37
2018-05-03T02:57:15.087Z,8.03
2018-05-03T02:59:54.626Z,6.93
2018-05-03T03:02:28.321Z,8.07
2018-05-03T03:08:21.023Z,8.27
2018-05-03T03:11:17.133Z,9.00
2018-05-03T03:14:02.513Z,8.37
2018-05-03T03:16:48.052Z,8.27
2018-05-03T03:19:27.905Z,8.23
2018-05-03T03:22:13.341Z,8.77
2018-05-03T03:24:53.046Z,7.63
2018-05-03T03:27:38.400Z,6.73
2018-05-03T03:30:34.663Z,8.37
2018-05-03T03:33:14.343Z,7.63
2018-05-03T03:36:02.832Z,9.03
2018-05-03T03:38:42.515Z,8.47
2018-05-03T03:41:22.148Z,8.90
2018-05-03T03:44:01.768Z,8.00
2018-05-03T03:46:29.671Z,8.57
2018-05-03T03:48:57.627Z,7.93
2018-05-03T03:51:25.648Z,8.83
2018-05-03T03:53:53.541Z,10.83
2018-05-03T03:56:21.469Z,8.60
2018-05-03T03:58:49.382Z,10.20
2018-05-03T04:01:17.415Z,9.03
2018-05-03T04:03:45.363Z,9.60
2018-05-03T04:06:13.303Z,9.17
2018-05-03T04:08:41.297Z,9.60
2018-05-03T04:11:09.212Z,9.90
2018-05-03T04:13:37.421Z,9.20
2018-05-03T04:16:05.351Z,10.10
2018-05-03T04:18:44.994Z,10.30
2018-05-03T04:21:24.559Z,9.80
2018-05-03T04:24:13.077Z,9.70
2018-05-03T04:26:41.020Z,9.10
2018-05-03T04:29:08.985Z,10.77
2018-05-03T04:31:36.898Z,11.37
2018-05-03T04:34:05.111Z,9.87
2018-05-03T04:36:33.048Z,11.87
2018-05-03T04:39:00.990Z,10.83
2018-05-03T04:41:28.988Z,9.80
2018-05-03T04:43:56.911Z,11.20
2018-05-03T04:46:24.818Z,10.37
2018-05-03T04:48:52.876Z,10.40
2018-05-03T04:51:20.895Z,11.00
2018-05-03T04:53:48.856Z,10.93
2018-05-03T04:56:16.804Z,10.87
2018-05-03T04:58:44.715Z,9.23
2018-05-03T05:01:12.635Z,11.17
2018-05-03T05:03:40.556Z,12.17
2018-05-03T05:06:08.481Z,11.80
2018-05-03T05:08:36.419Z,11.00
2018-05-03T05:11:04.344Z,11.20
2018-05-03T05:13:32.281Z,12.50
2018-05-03T05:16:00.218Z,10.60
2018-05-03T05:18:28.120Z,13.83
2018-05-03T05:20:56.064Z,12.43
2018-05-03T05:23:24.009Z,11.70
2018-05-03T05:25:51.949Z,13.97
2018-05-03T05:28:19.865Z,12.90
2018-05-03T05:30:47.879Z,13.40
2018-05-03T05:33:15.761Z,13.07
2018-05-03T05:35:43.767Z,11.83
2018-05-03T05:38:11.700Z,12.57
2018-05-03T05:40:39.604Z,12.27
2018-05-03T05:43:07.556Z,11.30
2018-05-03T05:45:35.475Z,11.97
2018-05-03T05:48:03.477Z,12.00
2018-05-03T05:50:31.407Z,11.23
2018-05-03T05:52:59.381Z,11.83
2018-05-03T05:55:27.347Z,12.70
2018-05-03T05:57:55.509Z,11.93
2018-05-03T06:00:23.516Z,11.33
2018-05-03T06:02:51.472Z,10.33
2018-05-03T06:05:19.403Z,10.80
2018-05-03T06:07:47.383Z,12.30
2018-05-03T06:10:15.325Z,12.13
2018-05-03T06:12:43.301Z,11.17
2018-05-03T06:15:11.227Z,11.63
2018-05-03T06:17:39.171Z,11.70
2018-05-03T06:20:07.082Z,10.30
2018-05-03T06:22:35.048Z,10.73
2018-05-03T06:25:02.966Z,11.13
2018-05-03T06:27:30.885Z,12.20
2018-05-03T06:29:58.804Z,10.73
2018-05-03T06:32:26.731Z,12.13
2018-05-03T06:34:54.759Z,11.20
2018-05-03T06:37:22.683Z,11.40
2018-05-03T06:39:50.611Z,10.67
2018-05-03T06:42:18.568Z,12.60
2018-05-03T06:44:46.531Z,12.17
2018-05-03T06:47:14.512Z,10.57
2018-05-03T06:49:42.422Z,10.93
2018-05-03T06:52:10.362Z,11.20
2018-05-03T06:54:38.399Z,10.93
2018-05-03T06:57:06.426Z,12.80
2018-05-03T06:59:34.397Z,12.73
2018-05-03T07:02:03.186Z,11.27
2018-05-03T07:04:31.181Z,13.07
2018-05-03T07:06:59.095Z,15.83
2018-05-03T07:09:27.035Z,15.30
2018-05-03T07:11:54.943Z,15.07
2018-05-03T07:14:22.878Z,14.40
2018-05-03T07:16:50.824Z,14.03
2018-05-03T07:19:18.843Z,15.00
2018-05-03T07:21:46.710Z,14.90
2018-05-03T07:24:14.651Z,13.40
2018-05-03T07:26:42.607Z,13.73
2018-05-03T07:29:10.512Z,13.67
2018-05-03T07:31:38.471Z,14.27
2018-05-03T07:34:06.385Z,13.37
2018-05-03T07:36:34.361Z,13.27
2018-05-03T07:39:02.275Z,13.00
2018-05-03T07:41:30.196Z,14.43
2018-05-03T07:43:58.120Z,15.33
2018-05-03T07:46:26.044Z,16.77
2018-05-03T07:48:53.972Z,16.77
2018-05-03T07:51:21.911Z,17.50
2018-05-03T07:53:49.895Z,18.23
2018-05-03T07:56:17.818Z,19.83
2018-05-03T07:58:45.759Z,19.20
2018-05-03T08:01:13.678Z,18.60
2018-05-03T08:03:41.625Z,19.77
2018-05-03T08:06:09.539Z,21.20
2018-05-03T08:08:37.461Z,21.60
2018-05-03T08:11:05.383Z,20.10
2018-05-03T08:13:33.314Z,19.93
2018-05-03T08:16:01.241Z,21.90
2018-05-03T08:18:29.193Z,20.70
2018-05-03T08:20:57.314Z,19.80
2018-05-03T08:23:25.248Z,20.10
2018-05-03T08:25:53.188Z,19.70
2018-05-03T08:28:21.123Z,20.93
2018-05-03T08:30:49.054Z,20.73
2018-05-03T08:33:17.007Z,22.40
2018-05-03T08:35:44.916Z,19.87
2018-05-03T08:38:13.370Z,21.20
2018-05-03T08:40:41.275Z,20.80
2018-05-03T08:43:09.182Z,18.77
2018-05-03T08:45:37.118Z,21.23
2018-05-03T08:48:05.048Z,19.20
2018-05-03T08:50:33.006Z,20.00
2018-05-03T08:53:01.333Z,19.97
2018-05-03T08:55:29.289Z,20.33
2018-05-03T08:57:57.221Z,21.17
2018-05-03T09:00:25.135Z,20.10
2018-05-03T09:02:53.095Z,20.53
2018-05-03T09:05:21.043Z,19.40
2018-05-03T09:07:49.080Z,17.37
2018-05-03T09:10:16.973Z,16.63
2018-05-03T09:12:44.927Z,18.10
2018-05-03T09:15:12.864Z,16.20
2018-05-03T09:17:40.800Z,14.70
2018-05-03T09:20:08.695Z,12.93
2018-05-03T09:22:36.610Z,11.40
2018-05-03T09:25:04.747Z,9.63
2018-05-03T09:27:32.655Z,9.43
2018-05-03T09:30:00.547Z,8.37
2018-05-03T09:32:28.447Z,7.40
2018-05-03T09:34:56.642Z,6.27
2018-05-03T09:37:24.507Z,5.83
2018-05-03T09:39:52.444Z,5.20
2018-05-03T09:42:20.364Z,4.80
2018-05-03T09:44:48.312Z,5.20
2018-05-03T09:47:16.191Z,4.73
2018-05-03T09:49:44.100Z,4.60
2018-05-03T09:52:12.008Z,4.77
2018-05-03T09:54:39.930Z,4.63
2018-05-03T09:57:07.863Z,4.67
2018-05-03T09:59:35.816Z,4.43
2018-05-03T10:02:03.735Z,4.70
2018-05-03T10:04:31.637Z,4.47
2018-05-03T10:06:59.610Z,5.23
2018-05-03T10:09:27.534Z,4.90
2018-05-03T10:11:55.447Z,4.43
2018-05-03T10:14:23.369Z,4.30
2018-05-03T10:16:51.278Z,4.10
2018-05-03T10:19:19.180Z,3.97
2018-05-03T10:21:47.109Z,3.30
2018-05-03T10:24:15.004Z,3.50
2018-05-03T10:26:42.920Z,4.17
2018-05-03T10:29:10.842Z,4.43
2018-05-03T10:31:38.819Z,4.60
2018-05-03T10:34:06.727Z,3.70
2018-05-03T10:36:34.631Z,3.97
2018-05-03T10:39:02.555Z,4.90
2018-05-03T10:41:30.448Z,3.90
2018-05-03T10:43:58.379Z,4.40
2018-05-03T10:46:26.342Z,4.23
2018-05-03T10:48:54.256Z,4.03
2018-05-03T10:51:22.183Z,4.13
2018-05-03T10:53:50.108Z,4.27
2018-05-03T10:56:18.032Z,4.20
2018-05-03T10:58:45.925Z,3.97
2018-05-03T11:01:13.848Z,3.40
2018-05-03T11:03:41.766Z,3.77
2018-05-03T11:06:09.677Z,3.80
2018-05-03T11:08:37.587Z,3.90
2018-05-03T11:11:05.554Z,3.40
2018-05-03T11:13:34.263Z,3.97
2018-05-03T11:16:02.164Z,3.70
2018-05-03T11:18:30.273Z,3.20
2018-05-03T11:20:58.376Z,2.93
2018-05-03T11:23:26.540Z,3.37
2018-05-03T11:25:54.439Z,4.10
2018-05-03T11:28:22.346Z,3.40
2018-05-03T11:30:50.237Z,3.10
2018-05-03T11:33:18.163Z,3.80
2018-05-03T11:35:46.071Z,3.37
2018-05-03T11:38:14.161Z,3.70
2018-05-03T11:40:42.052Z,3.60
2018-05-03T11:43:10.019Z,3.17
2018-05-03T11:45:37.930Z,2.80
2018-05-03T11:48:05.857Z,3.03
2018-05-03T11:50:33.756Z,2.60
2018-05-03T11:53:01.768Z,2.70
2018-05-03T11:55:29.690Z,2.97
2018-05-03T11:57:57.602Z,2.63
2018-05-03T12:00:25.526Z,2.60
2018-05-03T12:02:53.472Z,2.60
2018-05-03T12:05:21.402Z,2.33
2018-05-03T12:07:49.318Z,2.70
2018-05-03T12:10:17.610Z,2.50
2018-05-03T12:12:45.528Z,2.80
2018-05-03T12:15:13.423Z,2.37
2018-05-03T12:17:41.410Z,2.70
2018-05-03T12:20:09.335Z,2.60
2018-05-03T12:22:37.238Z,2.70
2018-05-03T12:25:05.146Z,2.53
2018-05-03T12:27:33.043Z,2.80
2018-05-03T12:30:00.971Z,3.20
2018-05-03T12:32:28.875Z,3.27
2018-05-03T12:34:56.867Z,3.10
2018-05-03T12:37:24.713Z,2.97
2018-05-03T12:39:52.709Z,3.07
2018-05-03T12:42:20.623Z,2.80
2018-05-03T12:44:48.553Z,2.60
2018-05-03T12:47:16.480Z,2.90
2018-05-03T12:49:44.401Z,2.43
2018-05-03T12:52:12.296Z,3.23
2018-05-03T12:54:40.257Z,2.90
2018-05-03T12:57:08.164Z,3.27
2018-05-03T12:59:36.091Z,2.90
2018-05-03T13:02:03.996Z,4.10
2018-05-03T13:04:31.937Z,2.80
2018-05-03T13:06:59.869Z,2.77
2018-05-03T13:09:27.787Z,2.90
2018-05-03T13:11:55.696Z,2.73
2018-05-03T13:14:23.638Z,16.20
2018-05-03T13:16:51.635Z,34.07
2018-05-03T13:19:19.619Z,14.30
2018-05-03T13:21:47.557Z,16.10
2018-05-03T13:24:15.519Z,51.57
2018-05-03T13:26:43.427Z,27.00
2018-05-03T13:29:11.340Z,13.13
2018-05-03T13:31:39.263Z,8.47
2018-05-03T13:34:07.164Z,3.60
2018-05-03T13:36:35.109Z,11.20
2018-05-03T13:39:03.024Z,6.70
2018-05-03T13:41:30.968Z,3.57
2018-05-03T13:43:58.893Z,4.03
2018-05-03T13:46:26.804Z,4.67
2018-05-03T13:48:54.742Z,2.70
2018-05-03T13:51:22.646Z,15.70
2018-05-03T13:53:50.571Z,9.13
2018-05-03T13:56:18.507Z,10.50
2018-05-03T13:58:46.425Z,8.07
2018-05-03T14:01:14.394Z,25.57
2018-05-03T14:03:42.299Z,10.40
2018-05-03T14:06:10.203Z,8.60
2018-05-03T14:08:38.182Z,24.10
2018-05-03T14:11:06.078Z,9.30
2018-05-03T14:13:33.999Z,24.43
2018-05-03T14:16:01.914Z,12.07
2018-05-03T14:18:30.092Z,13.70
2018-05-03T14:20:58.079Z,5.40
2018-05-03T14:23:25.937Z,5.90
2018-05-03T14:25:53.856Z,3.50
2018-05-03T14:28:21.763Z,3.33
2018-05-03T14:30:49.729Z,3.90
2018-05-03T14:33:18.354Z,3.13
2018-05-03T14:35:46.281Z,2.50
2018-05-03T14:38:14.205Z,2.60
2018-05-03T14:40:42.176Z,2.70
2018-05-03T14:43:10.090Z,2.90
2018-05-03T14:45:38.029Z,3.00
2018-05-03T14:48:06.029Z,2.27
2018-05-03T14:50:33.951Z,2.60
2018-05-03T14:53:01.868Z,2.53
2018-05-03T14:55:29.822Z,2.60
2018-05-03T14:57:57.720Z,2.93
2018-05-03T15:00:25.700Z,3.07
2018-05-03T15:02:53.786Z,2.40
2018-05-03T15:05:21.733Z,3.17
2018-05-03T15:07:49.656Z,3.33
2018-05-03T15:10:17.582Z,3.10
2018-05-03T15:12:45.504Z,2.60
2018-05-03T15:15:13.472Z,3.50
2018-05-03T15:17:41.432Z,6.87
2018-05-03T15:20:09.350Z,7.30
2018-05-03T15:22:37.412Z,4.57
2018-05-03T15:25:05.311Z,4.77
2018-05-03T15:27:33.248Z,9.43
2018-05-03T15:30:01.180Z,4.30
2018-05-03T15:32:29.260Z,6.57
2018-05-03T15:34:57.167Z,4.07
2018-05-03T15:37:25.156Z,4.50
2018-05-03T15:39:53.088Z,5.80
2018-05-03T15:42:20.996Z,3.60
2018-05-03T15:44:48.986Z,3.50
2018-05-03T15:47:16.882Z,3.60
2018-05-03T15:49:44.811Z,2.90
2018-05-03T15:52:12.708Z,3.17
2018-05-03T15:54:40.640Z,3.73
2018-05-03T15:57:08.576Z,2.63
2018-05-03T15:59:36.475Z,2.83
2018-05-03T16:02:04.461Z,3.10
2018-05-03T16:04:32.394Z,3.50
2018-05-03T16:07:00.308Z,2.53
2018-05-03T16:09:28.239Z,3.23
2018-05-03T16:11:56.170Z,2.90
2018-05-03T16:14:24.118Z,2.73
2018-05-03T16:16:52.074Z,3.87
2018-05-03T16:19:20.163Z,2.80
2018-05-03T16:21:48.309Z,7.70
2018-05-03T16:24:16.269Z,2.90
2018-05-03T16:26:44.252Z,3.30
2018-05-03T16:29:12.164Z,3.37
2018-05-03T16:31:40.099Z,3.27
2018-05-03T16:34:08.089Z,2.60
2018-05-03T16:36:36.106Z,3.07
2018-05-03T16:39:04.021Z,3.10
2018-05-03T16:41:32.028Z,3.13
2018-05-03T16:43:59.942Z,2.87
2018-05-03T16:46:27.873Z,2.60
2018-05-03T16:48:55.813Z,2.60
2018-05-03T16:51:23.851Z,2.60
2018-05-03T16:53:51.751Z,2.80
2018-05-03T16:56:19.747Z,2.37
2018-05-03T16:58:47.659Z,2.87
2018-05-03T17:01:15.586Z,2.30
2018-05-03T17:03:43.490Z,3.03
2018-05-03T17:06:11.509Z,2.33
2018-05-03T17:08:39.399Z,2.40
2018-05-03T17:11:07.826Z,2.60
2018-05-03T17:13:35.942Z,2.57
2018-05-03T17:16:04.201Z,2.57
2018-05-03T17:18:32.131Z,2.30
2018-05-03T17:21:00.268Z,2.10
2018-05-03T17:23:28.208Z,2.60
2018-05-03T17:25:56.382Z,2.20
2018-05-03T17:28:24.344Z,2.50
2018-05-03T17:30:52.357Z,2.33
2018-05-03T17:33:20.448Z,2.97
2018-05-03T17:35:48.433Z,2.10
2018-05-03T17:38:16.439Z,1.93
2018-05-03T17:40:44.339Z,1.60
2018-05-03T17:43:12.273Z,1.90
2018-05-03T17:45:40.429Z,2.10
2018-05-03T17:48:08.506Z,2.43
2018-05-03T17:50:36.439Z,2.10
2018-05-03T17:53:04.456Z,2.43
2018-05-03T17:55:32.394Z,1.83
2018-05-03T17:58:00.294Z,1.90
2018-05-03T18:00:28.295Z,3.03
2018-05-03T18:02:57.289Z,2.20
2018-05-03T18:05:25.259Z,1.80
2018-05-03T18:07:53.156Z,1.37
2018-05-03T18:10:21.076Z,2.53
2018-05-03T18:12:49.044Z,2.17
2018-05-03T18:15:17.014Z,2.50
2018-05-03T18:17:45.155Z,1.50
2018-05-03T18:20:13.682Z,2.17
2018-05-03T18:22:41.604Z,1.87
2018-05-03T18:25:09.949Z,2.00
2018-05-03T18:27:38.763Z,2.37
2018-05-03T18:30:06.751Z,2.03
2018-05-03T18:32:34.804Z,1.83
2018-05-03T18:35:02.875Z,2.33
2018-05-03T18:37:30.818Z,1.90
2018-05-03T18:39:58.750Z,2.53
2018-05-03T18:42:26.887Z,2.17
2018-05-03T18:44:54.804Z,2.27
2018-05-03T18:47:22.834Z,2.40
2018-05-03T18:49:50.770Z,11.20
2018-05-03T18:52:18.671Z,13.90
2018-05-03T18:54:46.647Z,19.80
2018-05-03T18:57:14.560Z,19.70
2018-05-03T18:59:42.505Z,15.43
2018-05-03T19:02:10.472Z,6.60
2018-05-03T19:04:38.384Z,6.67
2018-05-03T19:07:06.310Z,6.30
2018-05-03T19:09:34.270Z,3.53
2018-05-03T19:12:02.233Z,4.00
2018-05-03T19:14:30.242Z,3.37
2018-05-03T19:16:58.208Z,3.30
2018-05-03T19:19:26.160Z,4.07
2018-05-03T19:21:54.966Z,3.37
2018-05-03T19:24:22.875Z,3.00
2018-05-03T19:26:50.825Z,2.83
2018-05-03T19:29:18.782Z,3.33
2018-05-03T19:31:46.757Z,18.20
2018-05-03T19:34:15.254Z,24.33
2018-05-03T19:36:43.157Z,11.77
2018-05-03T19:39:11.095Z,49.63
2018-05-03T19:41:39.044Z,19.90
2018-05-03T19:44:07.045Z,68.43
2018-05-03T19:46:34.978Z,19.97
2018-05-03T19:49:03.007Z,4.27
2018-05-03T19:51:30.896Z,12.20
2018-05-03T19:53:58.833Z,7.90
2018-05-03T19:56:26.781Z,24.50
2018-05-03T19:58:54.702Z,17.77
2018-05-03T20:01:22.619Z,7.40
2018-05-03T20:03:50.640Z,3.80
2018-05-03T20:06:18.761Z,3.53
2018-05-03T20:08:46.671Z,3.07
2018-05-03T20:11:14.635Z,3.03
2018-05-03T20:13:42.565Z,2.90
2018-05-03T20:16:10.572Z,5.47
2018-05-03T20:18:38.585Z,18.70
2018-05-03T20:21:06.481Z,23.47
2018-05-03T20:23:34.400Z,20.37
2018-05-03T20:26:02.341Z,25.50
2018-05-03T20:28:30.252Z,12.90
2018-05-03T20:30:58.194Z,9.20
2018-05-03T20:33:26.123Z,6.47
2018-05-03T20:35:54.099Z,4.00
2018-05-03T20:38:22.008Z,3.77
2018-05-03T20:40:49.928Z,2.53
2018-05-03T20:43:17.859Z,3.07
2018-05-03T20:45:45.761Z,2.60
2018-05-03T20:48:13.686Z,3.20
2018-05-03T20:50:41.775Z,4.30
2018-05-03T20:53:09.704Z,3.33
2018-05-03T20:55:37.619Z,4.87
2018-05-03T20:58:05.521Z,4.27
2018-05-03T21:00:33.499Z,4.73
2018-05-03T21:03:01.492Z,6.00
2018-05-03T21:05:29.900Z,4.70
2018-05-03T21:07:57.826Z,4.30
2018-05-03T21:10:25.774Z,3.97
2018-05-03T21:12:53.680Z,3.03
2018-05-03T21:15:21.610Z,3.57
2018-05-03T21:17:49.516Z,3.30
2018-05-03T21:20:17.447Z,3.10
2018-05-03T21:22:45.398Z,3.30
2018-05-03T21:25:13.325Z,2.13
2018-05-03T21:27:41.239Z,2.43
2018-05-03T21:30:09.143Z,3.90
2018-05-03T21:32:37.240Z,2.17
2018-05-03T21:35:05.185Z,2.30
2018-05-03T21:37:33.104Z,2.43
2018-05-03T21:40:01.060Z,2.40
2018-05-03T21:42:29.047Z,3.10
2018-05-03T21:44:57.012Z,2.30
2018-05-03T21:47:24.971Z,2.83
2018-05-03T21:49:52.864Z,2.30
2018-05-03T21:52:20.846Z,2.50
2018-05-03T21:54:48.729Z,2.00
2018-05-03T21:57:16.855Z,3.00
2018-05-03T21:59:45.402Z,2.57
2018-05-03T22:02:13.317Z,2.80
2018-05-03T22:04:41.232Z,2.57
2018-05-03T22:07:09.161Z,2.00
2018-05-03T22:09:37.078Z,2.37
2018-05-03T22:12:04.993Z,2.17
2018-05-03T22:14:32.949Z,1.87
2018-05-03T22:17:00.862Z,2.10
2018-05-03T22:19:28.814Z,2.20
2018-05-03T22:21:56.773Z,2.00
2018-05-03T22:24:24.672Z,2.37
2018-05-03T22:26:52.664Z,1.80
2018-05-03T22:29:20.587Z,1.80
2018-05-03T22:31:48.517Z,2.30
2018-05-03T22:34:16.487Z,2.50
2018-05-03T22:36:44.416Z,2.03
2018-05-03T22:39:12.365Z,1.90
2018-05-03T22:41:40.259Z,2.00
2018-05-03T22:44:08.180Z,1.93
2018-05-03T22:46:36.159Z,1.63
2018-05-03T22:49:04.117Z,2.20
2018-05-03T22:51:32.087Z,1.80
2018-05-03T22:54:00.073Z,2.20
2018-05-03T22:56:28.012Z,2.07
2018-05-03T22:58:55.968Z,2.17
2018-05-03T23:01:23.916Z,2.30
2018-05-03T23:03:51.819Z,2.47
2018-05-03T23:06:19.783Z,2.33
2018-05-03T23:08:47.711Z,3.40
2018-05-03T23:11:15.643Z,2.90
2018-05-03T23:13:43.540Z,4.10
2018-05-03T23:16:11.460Z,3.70
2018-05-03T23:18:39.400Z,4.63
2018-05-03T23:21:07.369Z,4.70
2018-05-03T23:23:35.266Z,5.00
2018-05-03T23:26:03.200Z,4.70
2018-05-03T23:28:31.122Z,4.10
2018-05-03T23:30:59.060Z,4.83
2018-05-03T23:33:27.009Z,3.83
2018-05-03T23:35:54.904Z,4.47
2018-05-03T23:38:22.842Z,3.73
2018-05-03T23:40:50.787Z,3.20
2018-05-03T23:43:18.709Z,3.67
2018-05-03T23:45:46.625Z,3.30
2018-05-03T23:48:14.527Z,1.70
2018-05-03T23:50:42.431Z,2.87
2018-05-03T23:53:10.338Z,2.50
2018-05-03T23:55:38.291Z,2.63
2018-05-03T23:58:06.206Z,2.83
